createdAt,value
2022-11-23T00:01:35.992Z,5.39
2022-11-23T00:04:12.881Z,5.34
2022-11-23T00:06:41.221Z,5.29
2022-11-23T00:09:10.593Z,5.35
2022-11-23T00:11:38.510Z,5.33
2022-11-23T00:14:06.344Z,5.26
2022-11-23T00:16:34.487Z,5.20
2022-11-23T00:19:03.013Z,5.27
2022-11-23T00:21:32.654Z,5.22
2022-11-23T00:24:00.791Z,5.07
2022-11-23T00:26:28.819Z,5.01
2022-11-23T00:28:56.968Z,5.04
2022-11-23T00:31:28.841Z,5.11
2022-11-23T00:33:57.876Z,5.30
2022-11-23T00:36:27.327Z,5.31
2022-11-23T00:38:55.793Z,5.31
2022-11-23T00:41:27.034Z,5.25
2022-11-23T00:43:55.223Z,5.26
2022-11-23T00:46:27.852Z,5.21
2022-11-23T00:48:58.078Z,5.24
2022-11-23T00:51:32.559Z,5.19
2022-11-23T00:54:01.959Z,5.16
2022-11-23T00:56:30.147Z,5.09
2022-11-23T00:58:59.515Z,5.12
2022-11-23T01:01:30.896Z,5.03
2022-11-23T01:03:59.391Z,5.03
2022-11-23T01:06:33.020Z,5.04
2022-11-23T01:09:04.623Z,4.94
2022-11-23T01:11:33.029Z,4.78
2022-11-23T01:14:01.667Z,4.77
2022-11-23T01:16:32.540Z,4.60
2022-11-23T01:19:07.189Z,4.54
2022-11-23T01:21:36.883Z,4.47
2022-11-23T01:24:09.024Z,4.54
2022-11-23T01:26:40.761Z,4.50
2022-11-23T01:29:12.030Z,4.37
2022-11-23T01:31:46.120Z,4.29
2022-11-23T01:34:16.191Z,4.17
2022-11-23T01:36:44.694Z,4.03
2022-11-23T01:39:14.499Z,3.96
2022-11-23T01:41:44.525Z,3.95
2022-11-23T01:44:32.383Z,3.95
2022-11-23T01:47:03.751Z,3.85
2022-11-23T01:49:50.026Z,3.82
2022-11-23T01:52:24.787Z,3.78
2022-11-23T01:54:59.183Z,3.81
2022-11-23T01:57:34.869Z,3.71
2022-11-23T02:00:02.893Z,3.53
2022-11-23T02:02:45.832Z,3.45
2022-11-23T02:05:17.168Z,3.39
2022-11-23T02:07:50.064Z,3.37
2022-11-23T02:10:18.525Z,3.34
2022-11-23T02:12:46.760Z,3.35
2022-11-23T02:15:14.775Z,3.36
2022-11-23T02:17:44.095Z,3.32
2022-11-23T02:20:15.958Z,3.27
2022-11-23T02:23:07.099Z,3.25
2022-11-23T02:25:47.001Z,3.24
2022-11-23T02:28:22.362Z,3.27
2022-11-23T02:30:53.183Z,3.36
2022-11-23T02:33:23.332Z,3.48
2022-11-23T02:35:56.110Z,3.61
2022-11-23T02:38:28.261Z,3.65
2022-11-23T02:40:58.213Z,3.54
2022-11-23T02:43:26.163Z,3.42
2022-11-23T02:46:04.146Z,3.23
2022-11-23T02:48:32.687Z,3.09
2022-11-23T02:51:03.346Z,3.06
2022-11-23T02:53:31.953Z,3.01
2022-11-23T02:55:59.766Z,3.00
2022-11-23T02:58:27.672Z,2.95
2022-11-23T03:00:55.577Z,2.94
2022-11-23T03:03:23.996Z,2.95
2022-11-23T03:05:51.905Z,3.01
2022-11-23T03:08:20.124Z,3.09
2022-11-23T03:10:48.152Z,3.15
2022-11-23T03:13:16.047Z,3.14
2022-11-23T03:15:44.207Z,3.15
2022-11-23T03:18:12.007Z,3.11
2022-11-23T03:20:39.983Z,3.07
2022-11-23T03:23:07.808Z,3.02
2022-11-23T03:25:35.761Z,2.97
2022-11-23T03:28:04.863Z,3.01
2022-11-23T03:30:33.758Z,2.99
2022-11-23T03:33:02.317Z,2.97
2022-11-23T03:35:30.065Z,2.98
2022-11-23T03:38:16.684Z,2.91
2022-11-23T03:40:47.620Z,2.94
2022-11-23T03:43:24.563Z,2.96
2022-11-23T03:45:52.606Z,2.93
2022-11-23T03:48:20.438Z,2.91
2022-11-23T03:50:49.082Z,2.95
2022-11-23T03:53:16.844Z,2.97
2022-11-23T03:55:47.109Z,2.87
2022-11-23T03:58:16.020Z,2.82
2022-11-23T04:00:44.319Z,2.81
2022-11-23T04:03:13.907Z,2.83
2022-11-23T04:06:00.483Z,2.75
2022-11-23T04:08:34.220Z,2.53
2022-11-23T04:11:07.113Z,2.44
2022-11-23T04:13:39.598Z,2.53
2022-11-23T04:16:07.960Z,2.60
2022-11-23T04:18:35.734Z,2.59
2022-11-23T04:21:06.522Z,2.68
2022-11-23T04:23:34.765Z,2.74
2022-11-23T04:26:04.014Z,2.80
2022-11-23T04:28:31.867Z,2.86
2022-11-23T04:30:59.562Z,2.79
2022-11-23T04:33:31.657Z,2.76
2022-11-23T04:35:59.878Z,2.76
2022-11-23T04:38:27.722Z,2.77
2022-11-23T04:40:55.566Z,2.74
2022-11-23T04:43:23.475Z,2.66
2022-11-23T04:45:51.609Z,2.60
2022-11-23T04:48:24.686Z,2.55
2022-11-23T04:50:55.836Z,2.55
2022-11-23T04:53:29.225Z,2.60
2022-11-23T04:55:57.411Z,2.59
2022-11-23T04:58:26.931Z,2.62
2022-11-23T05:00:59.077Z,2.66
2022-11-23T05:03:27.292Z,2.69
2022-11-23T05:05:58.658Z,2.76
2022-11-23T05:08:27.131Z,2.83
2022-11-23T05:11:01.811Z,2.72
2022-11-23T05:13:30.361Z,2.76
2022-11-23T05:16:01.407Z,2.79
2022-11-23T05:18:29.901Z,2.77
2022-11-23T05:20:57.746Z,2.78
2022-11-23T05:23:25.624Z,2.75
2022-11-23T05:25:54.260Z,2.74
2022-11-23T05:28:39.490Z,2.75
2022-11-23T05:31:08.980Z,2.76
2022-11-23T05:33:38.783Z,2.77
2022-11-23T05:36:08.601Z,2.84
2022-11-23T05:38:39.277Z,3.03
2022-11-23T05:41:12.491Z,3.01
2022-11-23T05:43:42.232Z,3.10
2022-11-23T05:46:12.098Z,3.12
2022-11-23T05:48:40.438Z,3.17
2022-11-23T05:51:12.507Z,3.12
2022-11-23T05:53:46.684Z,3.23
2022-11-23T05:56:20.568Z,3.15
2022-11-23T05:59:12.504Z,3.22
2022-11-23T06:01:41.731Z,3.13
2022-11-23T06:04:10.660Z,3.11
2022-11-23T06:06:43.244Z,3.00
2022-11-23T06:09:11.347Z,3.07
2022-11-23T06:11:40.875Z,3.06
2022-11-23T06:14:14.375Z,3.09
2022-11-23T06:16:42.998Z,3.03
2022-11-23T06:19:18.869Z,3.08
2022-11-23T06:21:50.399Z,3.25
2022-11-23T06:24:19.586Z,3.28
2022-11-23T06:26:52.607Z,3.15
2022-11-23T06:29:20.886Z,3.00
2022-11-23T06:31:49.284Z,3.14
2022-11-23T06:34:17.275Z,3.21
2022-11-23T06:36:45.108Z,3.25
2022-11-23T06:39:13.553Z,3.12
2022-11-23T06:41:41.587Z,3.18
2022-11-23T06:44:09.600Z,3.29
2022-11-23T06:46:40.861Z,3.16
2022-11-23T06:49:09.097Z,3.17
2022-11-23T06:51:38.189Z,3.20
2022-11-23T06:54:06.207Z,3.28
2022-11-23T06:56:35.126Z,3.37
2022-11-23T06:59:04.008Z,3.45
2022-11-23T07:01:32.872Z,3.61
2022-11-23T07:04:04.372Z,3.53
2022-11-23T07:06:38.934Z,3.50
2022-11-23T07:09:09.450Z,3.67
2022-11-23T07:11:47.620Z,3.74
2022-11-23T07:14:16.780Z,3.58
2022-11-23T07:16:47.284Z,3.81
2022-11-23T07:19:15.783Z,3.82
2022-11-23T07:21:45.146Z,3.80
2022-11-23T07:24:13.075Z,3.81
2022-11-23T07:26:42.200Z,3.82
2022-11-23T07:29:10.577Z,3.92
2022-11-23T07:31:38.925Z,4.07
2022-11-23T07:34:09.299Z,4.10
2022-11-23T07:36:37.742Z,4.06
2022-11-23T07:39:07.513Z,4.05
2022-11-23T07:41:35.924Z,4.04
2022-11-23T07:44:09.920Z,4.01
2022-11-23T07:46:37.804Z,3.96
2022-11-23T07:49:06.113Z,4.08
2022-11-23T07:51:34.496Z,4.16
2022-11-23T07:54:02.637Z,4.32
2022-11-23T07:56:30.668Z,4.30
2022-11-23T07:58:58.842Z,4.34
2022-11-23T08:01:26.757Z,4.43
2022-11-23T08:03:54.636Z,4.53
2022-11-23T08:06:22.624Z,4.54
2022-11-23T08:08:50.500Z,4.48
2022-11-23T08:11:20.655Z,4.37
2022-11-23T08:13:48.773Z,4.34
2022-11-23T08:16:16.730Z,4.29
2022-11-23T08:18:44.727Z,4.45
2022-11-23T08:21:12.531Z,4.52
2022-11-23T08:23:40.652Z,4.43
2022-11-23T08:26:13.357Z,4.53
2022-11-23T08:28:41.938Z,4.58
2022-11-23T08:31:14.615Z,4.57
2022-11-23T08:33:43.280Z,4.58
2022-11-23T08:36:11.246Z,4.55
2022-11-23T08:38:39.138Z,4.57
2022-11-23T08:41:07.135Z,4.60
2022-11-23T08:43:36.140Z,4.68
2022-11-23T08:46:10.766Z,4.79
2022-11-23T08:48:39.326Z,4.74
2022-11-23T08:51:08.030Z,4.84
2022-11-23T08:53:37.039Z,4.83
2022-11-23T08:56:07.011Z,4.89
2022-11-23T08:58:35.207Z,4.87
2022-11-23T09:01:08.453Z,4.72
2022-11-23T09:03:36.694Z,4.75
2022-11-23T09:06:05.782Z,4.68
2022-11-23T09:08:34.400Z,4.66
2022-11-23T09:11:05.665Z,4.67
2022-11-23T09:13:39.155Z,4.78
2022-11-23T09:16:08.626Z,4.71
2022-11-23T09:18:37.327Z,4.65
2022-11-23T09:21:06.712Z,4.78
2022-11-23T09:23:34.687Z,4.82
2022-11-23T09:26:04.679Z,4.86
2022-11-23T09:28:33.854Z,4.71
2022-11-23T09:31:04.499Z,4.55
2022-11-23T09:33:33.197Z,4.65
2022-11-23T09:36:03.598Z,4.65
2022-11-23T09:38:55.088Z,4.76
2022-11-23T09:41:50.093Z,4.89
2022-11-23T09:44:34.575Z,4.97
2022-11-23T09:47:20.722Z,4.95
2022-11-23T09:50:11.862Z,5.09
2022-11-23T09:52:44.683Z,5.08
2022-11-23T09:55:21.759Z,5.02
2022-11-23T09:57:53.366Z,5.04
2022-11-23T10:00:23.290Z,4.99
2022-11-23T10:02:51.353Z,5.19
2022-11-23T10:05:26.226Z,5.35
2022-11-23T10:08:16.802Z,5.38
2022-11-23T10:10:58.110Z,5.38
2022-11-23T10:13:45.091Z,5.40
2022-11-23T10:16:52.892Z,5.61
2022-11-23T10:19:55.013Z,5.72
2022-11-23T10:22:29.013Z,5.84
2022-11-23T10:24:57.310Z,5.87
2022-11-23T10:27:25.746Z,5.51
2022-11-23T10:29:56.619Z,5.43
2022-11-23T10:32:37.855Z,5.09
2022-11-23T10:35:12.532Z,4.86
2022-11-23T10:37:41.493Z,4.79
2022-11-23T10:40:21.484Z,4.77
2022-11-23T10:42:58.245Z,4.91
2022-11-23T10:45:28.021Z,5.20
2022-11-23T10:48:01.654Z,5.30
2022-11-23T10:50:40.809Z,5.19
2022-11-23T10:53:08.936Z,5.32
2022-11-23T10:55:49.829Z,5.29
2022-11-23T10:58:31.327Z,5.22
2022-11-23T11:01:06.362Z,5.21
2022-11-23T11:03:35.407Z,5.37
2022-11-23T11:06:09.910Z,5.48
2022-11-23T11:09:03.957Z,5.65
2022-11-23T11:11:38.887Z,5.77
2022-11-23T11:14:15.961Z,5.84
2022-11-23T11:16:55.827Z,5.92
2022-11-23T11:19:35.062Z,5.97
2022-11-23T11:22:25.324Z,5.95
2022-11-23T11:24:54.864Z,5.49
2022-11-23T11:27:25.166Z,5.20
2022-11-23T11:30:01.728Z,5.28
2022-11-23T11:32:39.148Z,5.37
2022-11-23T11:35:20.770Z,5.38
2022-11-23T11:37:51.847Z,5.40
2022-11-23T11:40:22.590Z,5.54
2022-11-23T11:42:59.870Z,5.55
2022-11-23T11:46:21.379Z,5.30
2022-11-23T11:48:45.086Z,5.13
2022-11-23T11:51:33.465Z,5.24
2022-11-23T11:54:31.917Z,5.48
2022-11-23T11:57:10.485Z,5.68
2022-11-23T11:59:45.248Z,5.66
2022-11-23T12:02:21.992Z,5.33
2022-11-23T12:05:03.614Z,5.06
2022-11-23T12:08:09.293Z,5.02
2022-11-23T12:10:59.282Z,5.36
2022-11-23T12:13:39.029Z,5.59
2022-11-23T12:16:33.928Z,5.80
2022-11-23T12:19:23.908Z,5.78
2022-11-23T12:22:16.641Z,5.82
2022-11-23T12:25:14.495Z,5.82
2022-11-23T12:28:00.976Z,5.77
2022-11-23T12:30:47.716Z,5.91
2022-11-23T12:33:48.052Z,5.78
2022-11-23T12:36:34.635Z,5.80
2022-11-23T12:39:40.782Z,5.78
2022-11-23T12:42:15.343Z,5.63
2022-11-23T12:45:20.392Z,5.86
2022-11-23T12:48:16.402Z,5.83
2022-11-23T12:51:02.681Z,5.81
2022-11-23T12:54:00.513Z,5.72
2022-11-23T12:57:08.404Z,5.27
2022-11-23T12:59:43.994Z,5.49
2022-11-23T13:02:39.472Z,5.48
2022-11-23T13:05:31.642Z,5.26
2022-11-23T13:08:04.151Z,5.05
2022-11-23T13:11:04.349Z,4.96
2022-11-23T13:13:59.668Z,5.21
2022-11-23T13:16:42.065Z,5.10
2022-11-23T13:19:25.133Z,5.33
2022-11-23T13:22:05.348Z,5.41
2022-11-23T13:24:38.403Z,5.60
2022-11-23T13:27:16.256Z,5.45
2022-11-23T13:29:49.030Z,5.23
2022-11-23T13:32:39.461Z,5.34
2022-11-23T13:35:16.616Z,5.37
2022-11-23T13:38:14.355Z,5.04
2022-11-23T13:40:44.973Z,4.81
2022-11-23T13:43:21.682Z,4.70
2022-11-23T13:46:34.769Z,4.72
2022-11-23T13:49:03.758Z,4.79
2022-11-23T13:51:34.789Z,4.92
2022-11-23T13:54:20.721Z,5.11
2022-11-23T13:56:59.190Z,5.18
2022-11-23T13:59:31.301Z,5.09
2022-11-23T14:01:59.826Z,5.08
2022-11-23T14:04:34.152Z,5.02
2022-11-23T14:07:07.146Z,5.04
2022-11-23T14:09:43.861Z,5.11
2022-11-23T14:12:11.810Z,5.39
2022-11-23T14:14:43.756Z,5.54
2022-11-23T14:17:36.482Z,5.64
2022-11-23T14:20:07.450Z,5.55
2022-11-23T14:22:44.673Z,5.36
2022-11-23T14:25:31.200Z,5.22
2022-11-23T14:28:24.150Z,5.24
2022-11-23T14:31:12.348Z,5.40
2022-11-23T14:33:52.281Z,5.50
2022-11-23T14:36:31.177Z,5.34
2022-11-23T14:39:36.731Z,5.28
2022-11-23T14:42:13.048Z,5.17
2022-11-23T14:44:42.760Z,5.17
2022-11-23T14:47:12.163Z,5.11
2022-11-23T14:49:53.334Z,5.10
2022-11-23T14:52:24.908Z,5.12
2022-11-23T14:54:58.704Z,5.29
2022-11-23T14:57:35.064Z,5.35
2022-11-23T15:00:10.150Z,5.44
2022-11-23T15:02:41.280Z,5.48
2022-11-23T15:05:21.081Z,5.51
2022-11-23T15:07:56.110Z,5.53
2022-11-23T15:10:27.896Z,5.42
2022-11-23T15:12:57.714Z,5.23
2022-11-23T15:15:31.286Z,5.26
2022-11-23T15:18:02.375Z,5.39
2022-11-23T15:20:41.447Z,5.45
2022-11-23T15:23:24.020Z,5.30
2022-11-23T15:25:57.583Z,5.26
2022-11-23T15:28:31.354Z,5.39
2022-11-23T15:30:59.543Z,5.38
2022-11-23T15:33:28.594Z,5.34
2022-11-23T15:35:57.890Z,5.45
2022-11-23T15:38:28.494Z,5.57
2022-11-23T15:41:05.710Z,5.49
2022-11-23T15:43:35.199Z,5.22
2022-11-23T15:46:13.285Z,5.20
2022-11-23T15:48:43.430Z,5.19
2022-11-23T15:51:35.037Z,5.21
2022-11-23T15:54:03.755Z,5.18
2022-11-23T15:56:35.125Z,5.24
2022-11-23T15:59:33.791Z,5.37
2022-11-23T16:02:07.369Z,5.45
2022-11-23T16:04:41.061Z,5.47
2022-11-23T16:07:21.063Z,5.23
2022-11-23T16:10:11.696Z,5.07
2022-11-23T16:12:51.223Z,5.11
2022-11-23T16:15:38.018Z,5.19
2022-11-23T16:18:18.827Z,5.36
2022-11-23T16:20:51.033Z,5.38
2022-11-23T16:23:46.056Z,5.51
2022-11-23T16:26:16.440Z,5.39
2022-11-23T16:29:03.642Z,5.34
2022-11-23T16:31:39.350Z,5.41
2022-11-23T16:34:17.635Z,5.29
2022-11-23T16:36:46.188Z,5.29
2022-11-23T16:39:14.741Z,5.21
2022-11-23T16:41:43.248Z,5.15
2022-11-23T16:44:12.284Z,5.25
2022-11-23T16:46:43.799Z,5.33
2022-11-23T16:49:19.057Z,5.35
2022-11-23T16:51:57.025Z,5.32
2022-11-23T16:54:26.470Z,5.42
2022-11-23T16:56:57.140Z,5.48
2022-11-23T16:59:26.287Z,5.57
2022-11-23T17:01:57.852Z,5.58
2022-11-23T17:04:27.979Z,5.59
2022-11-23T17:07:00.613Z,5.58
2022-11-23T17:09:30.571Z,5.60
2022-11-23T17:11:59.253Z,5.69
2022-11-23T17:14:30.082Z,5.76
2022-11-23T17:17:02.359Z,5.67
2022-11-23T17:19:31.889Z,5.65
2022-11-23T17:22:01.676Z,5.47
2022-11-23T17:24:32.812Z,5.52
2022-11-23T17:27:01.746Z,5.48
2022-11-23T17:29:33.221Z,5.46
2022-11-23T17:32:04.675Z,5.40
2022-11-23T17:34:33.160Z,5.16
2022-11-23T17:37:03.149Z,5.11
2022-11-23T17:39:36.927Z,5.18
2022-11-23T17:42:11.817Z,5.02
2022-11-23T17:44:44.810Z,5.03
2022-11-23T17:47:32.628Z,5.08
2022-11-23T17:50:03.736Z,5.17
2022-11-23T17:52:35.959Z,5.28
2022-11-23T17:55:04.901Z,5.30
2022-11-23T17:57:34.242Z,5.41
2022-11-23T18:00:03.755Z,5.49
2022-11-23T18:02:42.051Z,5.49
2022-11-23T18:05:19.500Z,5.52
2022-11-23T18:07:51.782Z,5.38
2022-11-23T18:10:20.929Z,5.21
2022-11-23T18:12:49.599Z,5.20
2022-11-23T18:15:23.078Z,5.41
2022-11-23T18:17:54.282Z,5.51
2022-11-23T18:20:24.630Z,5.54
2022-11-23T18:22:53.306Z,5.61
2022-11-23T18:25:43.741Z,5.74
2022-11-23T18:28:19.338Z,5.78
2022-11-23T18:30:50.289Z,5.76
2022-11-23T18:33:18.779Z,5.77
2022-11-23T18:35:47.447Z,5.76
2022-11-23T18:38:16.292Z,5.73
2022-11-23T18:40:44.506Z,5.71
2022-11-23T18:43:13.507Z,5.80
2022-11-23T18:45:42.909Z,5.80
2022-11-23T18:48:11.420Z,5.80
2022-11-23T18:50:40.455Z,5.87
2022-11-23T18:53:09.212Z,5.87
2022-11-23T18:55:37.962Z,5.83
2022-11-23T18:58:07.802Z,5.81
2022-11-23T19:00:37.666Z,5.76
2022-11-23T19:03:10.122Z,5.68
2022-11-23T19:05:43.032Z,5.64
2022-11-23T19:08:14.514Z,5.63
2022-11-23T19:10:45.751Z,5.62
2022-11-23T19:13:14.547Z,5.50
2022-11-23T19:15:44.106Z,5.38
2022-11-23T19:18:14.078Z,5.30
2022-11-23T19:20:43.083Z,5.32
2022-11-23T19:23:14.328Z,5.27
2022-11-23T19:25:43.304Z,5.24
2022-11-23T19:28:12.278Z,5.20
2022-11-23T19:30:41.500Z,5.21
2022-11-23T19:33:10.531Z,5.22
2022-11-23T19:35:39.421Z,5.19
2022-11-23T19:38:11.666Z,5.17
2022-11-23T19:40:41.148Z,5.16
2022-11-23T19:43:09.784Z,5.14
2022-11-23T19:45:38.626Z,5.16
2022-11-23T19:48:10.182Z,5.14
2022-11-23T19:50:39.946Z,5.14
2022-11-23T19:53:30.729Z,5.12
2022-11-23T19:56:07.740Z,5.07
2022-11-23T19:58:36.782Z,5.00
2022-11-23T20:01:08.161Z,4.83
2022-11-23T20:03:39.635Z,4.81
2022-11-23T20:06:12.745Z,4.69
2022-11-23T20:08:43.109Z,4.63
2022-11-23T20:11:17.149Z,4.55
2022-11-23T20:13:45.878Z,4.50
2022-11-23T20:16:18.494Z,4.56
2022-11-23T20:18:54.482Z,4.56
2022-11-23T20:21:24.013Z,4.43
2022-11-23T20:24:02.796Z,4.39
2022-11-23T20:26:34.058Z,4.41
2022-11-23T20:29:05.284Z,4.40
2022-11-23T20:31:40.169Z,4.39
2022-11-23T20:34:19.525Z,4.44
2022-11-23T20:36:51.784Z,4.47
2022-11-23T20:39:20.628Z,4.46
2022-11-23T20:41:49.979Z,4.44
2022-11-23T20:44:19.457Z,4.40
2022-11-23T20:47:05.776Z,4.37
2022-11-23T20:49:37.299Z,4.26
2022-11-23T20:52:06.429Z,4.28
2022-11-23T20:54:36.386Z,4.33
2022-11-23T20:57:06.058Z,4.31
2022-11-23T20:59:34.929Z,4.25
2022-11-23T21:02:03.133Z,4.19
2022-11-23T21:04:32.620Z,4.15
2022-11-23T21:07:01.275Z,4.08
2022-11-23T21:09:30.459Z,4.01
2022-11-23T21:12:17.973Z,4.02
2022-11-23T21:14:46.003Z,4.02
2022-11-23T21:17:14.907Z,3.89
2022-11-23T21:19:43.676Z,3.91
2022-11-23T21:22:14.171Z,3.89
2022-11-23T21:24:42.795Z,3.85
2022-11-23T21:27:13.688Z,3.75
2022-11-23T21:29:44.584Z,3.67
2022-11-23T21:32:16.794Z,3.66
2022-11-23T21:34:45.812Z,3.59
2022-11-23T21:37:14.338Z,3.66
2022-11-23T21:39:44.623Z,3.73
2022-11-23T21:42:17.126Z,3.74
2022-11-23T21:44:45.397Z,3.86
2022-11-23T21:47:14.677Z,3.88
2022-11-23T21:49:46.717Z,3.92
2022-11-23T21:52:16.001Z,3.89
2022-11-23T21:54:48.969Z,3.76
2022-11-23T21:57:17.818Z,3.83
2022-11-23T21:59:46.084Z,3.96
2022-11-23T22:02:14.669Z,3.93
2022-11-23T22:04:43.114Z,4.02
2022-11-23T22:07:12.261Z,4.04
2022-11-23T22:09:40.314Z,4.03
2022-11-23T22:12:08.654Z,4.14
2022-11-23T22:14:37.175Z,4.16
2022-11-23T22:17:05.617Z,4.23
2022-11-23T22:19:34.001Z,4.17
2022-11-23T22:22:02.093Z,4.10
2022-11-23T22:24:30.315Z,4.15
2022-11-23T22:26:59.539Z,4.29
2022-11-23T22:29:28.399Z,4.30
2022-11-23T22:31:57.758Z,4.30
2022-11-23T22:34:30.149Z,4.17
2022-11-23T22:36:58.832Z,4.26
2022-11-23T22:39:27.880Z,4.27
2022-11-23T22:41:57.016Z,4.19
2022-11-23T22:44:25.740Z,4.27
2022-11-23T22:46:54.233Z,4.14
2022-11-23T22:49:22.351Z,4.00
2022-11-23T22:51:50.618Z,3.96
2022-11-23T22:54:18.720Z,4.01
2022-11-23T22:56:46.823Z,3.97
2022-11-23T22:59:15.252Z,4.02
2022-11-23T23:01:43.513Z,4.11
2022-11-23T23:04:11.579Z,4.15
2022-11-23T23:06:39.880Z,4.15
2022-11-23T23:09:08.114Z,4.10
2022-11-23T23:11:37.560Z,4.15
2022-11-23T23:14:06.189Z,4.21
2022-11-23T23:16:35.183Z,4.07
2022-11-23T23:19:06.548Z,4.07
2022-11-23T23:21:35.128Z,4.29
2022-11-23T23:24:03.228Z,4.34
2022-11-23T23:26:31.417Z,4.24
2022-11-23T23:29:00.805Z,4.22
2022-11-23T23:31:30.572Z,4.29
2022-11-23T23:33:59.945Z,4.35
2022-11-23T23:36:28.172Z,4.40
2022-11-23T23:38:57.984Z,4.24
2022-11-23T23:41:29.137Z,4.13
2022-11-23T23:43:59.778Z,4.12
2022-11-23T23:46:28.067Z,4.05
2022-11-23T23:48:56.196Z,3.99
2022-11-23T23:51:25.154Z,4.07
2022-11-23T23:53:53.496Z,3.99
2022-11-23T23:56:25.102Z,4.10
2022-11-23T23:58:56.952Z,4.11
